Time;durP1;ratioP1;P1;durP2;ratioP2;P2;SDS_P1;SDS_P2;PMS_P1;PMS_P2;Temp;Humidity;BMP_temperature;BMP_pressure;BME280_temperature;BME280_humidity;BME280_pressure;Samples;Min_cycle;Max_cycle;Signal;HPM_P1;HPM_P2
2022/07/16 00:03:02;;;;;;;5.78;3.80;;;;;;;;;;5032957;28;20080;-65
2022/07/16 00:05:28;;;;;;;8.00;3.60;;;;;;;;;;5033021;28;20423;-65
2022/07/16 00:07:54;;;;;;;7.18;4.10;;;;;;;;;;5032920;28;20033;-73
2022/07/16 00:10:21;;;;;;;6.75;3.78;;;;;;;;;;5032975;28;20412;-65
2022/07/16 00:12:47;;;;;;;5.80;3.40;;;;;;;;;;5000024;28;20108;-68
2022/07/16 00:15:13;;;;;;;6.82;3.90;;;;;;;;;;4993613;28;20105;-70
2022/07/16 00:17:39;;;;;;;6.38;3.50;;;;;;;;;;4990583;28;20073;-65
2022/07/16 00:20:06;;;;;;;15.55;12.18;;;;;;;;;;4993349;28;20061;-66
2022/07/16 00:22:32;;;;;;;7.45;5.82;;;;;;;;;;4993512;28;20028;-68
2022/07/16 00:24:58;;;;;;;8.40;6.10;;;;;;;;;;4993513;28;20023;-70
2022/07/16 00:27:24;;;;;;;6.25;3.78;;;;;;;;;;4993250;28;20062;-69
2022/07/16 00:29:50;;;;;;;5.50;3.80;;;;;;;;;;4993511;28;20030;-73
2022/07/16 00:32:16;;;;;;;7.05;4.18;;;;;;;;;;4993362;28;20059;-66
2022/07/16 00:34:42;;;;;;;7.50;3.90;;;;;;;;;;4993541;28;20050;-68
2022/07/16 00:37:09;;;;;;;9.13;3.90;;;;;;;;;;4995233;28;20201;-64
2022/07/16 00:39:35;;;;;;;8.40;3.90;;;;;;;;;;4997258;28;20026;-63
2022/07/16 00:42:01;;;;;;;9.10;3.95;;;;;;;;;;4997028;28;20037;-63
2022/07/16 00:44:27;;;;;;;5.40;3.75;;;;;;;;;;4997087;28;20031;-64
2022/07/16 00:46:53;;;;;;;5.30;3.60;;;;;;;;;;4997086;28;20034;-64
2022/07/16 00:49:19;;;;;;;6.32;3.67;;;;;;;;;;4996957;28;20030;-73
2022/07/16 00:51:47;;;;;;;5.45;3.63;;;;;;;;;;4997012;28;20022;-66
2022/07/16 00:54:13;;;;;;;5.60;3.60;;;;;;;;;;4996787;28;20031;-70
2022/07/16 00:56:40;;;;;;;6.20;3.92;;;;;;;;;;4996894;28;20034;-68
2022/07/16 00:59:06;;;;;;;6.15;3.60;;;;;;;;;;4996751;28;20033;-72
2022/07/16 01:01:32;;;;;;;6.03;3.40;;;;;;;;;;4996915;28;20538;-69
2022/07/16 01:03:59;;;;;;;5.35;3.35;;;;;;;;;;4996422;28;20030;-72
2022/07/16 01:06:25;;;;;;;7.82;3.97;;;;;;;;;;4996714;28;20022;-65
2022/07/16 01:08:51;;;;;;;5.50;3.80;;;;;;;;;;4996448;28;20535;-70
2022/07/16 01:11:19;;;;;;;5.85;3.58;;;;;;;;;;5000315;28;20133;-67
2022/07/16 01:13:46;;;;;;;7.30;3.53;;;;;;;;;;5015928;28;20030;-71
2022/07/16 01:16:12;;;;;;;5.95;3.88;;;;;;;;;;5015970;28;20030;-64
2022/07/16 01:18:39;;;;;;;7.47;3.65;;;;;;;;;;5016027;28;20049;-66
2022/07/16 01:21:05;;;;;;;7.35;4.18;;;;;;;;;;5015828;28;20038;-65
2022/07/16 01:23:31;;;;;;;6.13;4.35;;;;;;;;;;5015894;28;20480;-64
2022/07/16 01:25:57;;;;;;;9.05;5.25;;;;;;;;;;5015955;28;20030;-64
2022/07/16 01:28:23;;;;;;;6.78;4.68;;;;;;;;;;5015516;28;20030;-65
2022/07/16 01:30:50;;;;;;;7.97;4.43;;;;;;;;;;5015955;28;20029;-70
2022/07/16 01:33:24;;;;;;;7.20;4.35;;;;;;;;;;5015851;28;20083;-68
2022/07/16 01:35:51;;;;;;;8.88;3.92;;;;;;;;;;5015640;28;20018;-64
2022/07/16 01:38:20;;;;;;;6.35;3.78;;;;;;;;;;5015672;28;20484;-63
2022/07/16 01:40:46;;;;;;;9.38;7.07;;;;;;;;;;5015472;28;20065;-68
2022/07/16 01:43:16;;;;;;;12.75;8.32;;;;;;;;;;5015247;28;20484;-63
2022/07/16 01:45:42;;;;;;;53.53;37.42;;;;;;;;;;5015230;28;20616;-65
2022/07/16 01:48:09;;;;;;;14.20;10.02;;;;;;;;;;5009913;28;20097;-66
2022/07/16 01:50:36;;;;;;;8.18;5.32;;;;;;;;;;5015204;28;20036;-64
2022/07/16 01:53:02;;;;;;;6.70;3.92;;;;;;;;;;5015462;28;20061;-65
2022/07/16 01:55:28;;;;;;;7.85;4.72;;;;;;;;;;5015384;28;20544;-64
2022/07/16 01:57:54;;;;;;;6.18;3.80;;;;;;;;;;5015092;28;20026;-64
2022/07/16 02:00:20;;;;;;;5.88;3.60;;;;;;;;;;5015100;28;20037;-63
2022/07/16 02:02:46;;;;;;;7.07;3.30;;;;;;;;;;5015233;28;20034;-63
2022/07/16 02:05:12;;;;;;;6.40;3.92;;;;;;;;;;5015180;28;20030;-64
2022/07/16 02:07:39;;;;;;;5.93;3.65;;;;;;;;;;5015090;28;20053;-64
2022/07/16 02:10:05;;;;;;;6.80;3.20;;;;;;;;;;5015070;28;20026;-63
2022/07/16 02:12:32;;;;;;;7.93;3.60;;;;;;;;;;5028654;28;20069;-64
2022/07/16 02:14:58;;;;;;;7.38;3.80;;;;;;;;;;5034696;28;20025;-64
2022/07/16 02:17:25;;;;;;;5.72;3.58;;;;;;;;;;5034694;28;20029;-64
2022/07/16 02:19:51;;;;;;;7.70;3.90;;;;;;;;;;5034472;28;20037;-64
2022/07/16 02:22:17;;;;;;;5.25;3.40;;;;;;;;;;5034540;28;20026;-64
2022/07/16 02:24:43;;;;;;;5.10;3.65;;;;;;;;;;5034713;28;20033;-64
2022/07/16 02:27:09;;;;;;;5.22;3.63;;;;;;;;;;5034351;28;20026;-64
2022/07/16 02:29:35;;;;;;;5.63;3.95;;;;;;;;;;5034530;28;20163;-65
2022/07/16 02:32:02;;;;;;;4.18;3.30;;;;;;;;;;5034426;28;20018;-65
2022/07/16 02:34:28;;;;;;;5.38;3.42;;;;;;;;;;5034273;28;20152;-64
2022/07/16 02:36:54;;;;;;;69.63;50.75;;;;;;;;;;5034413;28;20468;-64
2022/07/16 02:39:20;;;;;;;13.80;9.45;;;;;;;;;;5034074;28;20029;-63
2022/07/16 02:41:46;;;;;;;7.00;4.60;;;;;;;;;;5033899;28;20056;-65
2022/07/16 02:44:13;;;;;;;4.82;4.00;;;;;;;;;;5033948;28;20104;-67
2022/07/16 02:46:39;;;;;;;5.22;4.00;;;;;;;;;;5033938;28;20025;-63
2022/07/16 02:49:05;;;;;;;6.47;5.35;;;;;;;;;;5034012;28;20029;-63
2022/07/16 02:51:31;;;;;;;9.30;4.38;;;;;;;;;;5034145;28;20052;-64
2022/07/16 02:53:57;;;;;;;7.15;3.95;;;;;;;;;;5034067;28;20021;-64
2022/07/16 02:56:23;;;;;;;5.80;3.90;;;;;;;;;;5034046;28;20029;-66
2022/07/16 02:58:49;;;;;;;5.72;3.88;;;;;;;;;;5033749;28;20034;-64
2022/07/16 03:01:15;;;;;;;7.57;4.10;;;;;;;;;;5033538;28;20030;-63
2022/07/16 03:03:41;;;;;;;4.00;3.50;;;;;;;;;;5033763;28;20049;-65
2022/07/16 03:06:08;;;;;;;5.88;3.90;;;;;;;;;;5033757;28;20087;-64
2022/07/16 03:08:34;;;;;;;5.97;4.10;;;;;;;;;;5033736;28;20034;-64
2022/07/16 03:11:00;;;;;;;5.78;4.07;;;;;;;;;;5033345;28;20111;-63
2022/07/16 03:13:26;;;;;;;6.85;3.78;;;;;;;;;;5033477;28;20042;-64
2022/07/16 03:15:53;;;;;;;8.40;6.35;;;;;;;;;;5033458;28;20029;-70
2022/07/16 03:18:20;;;;;;;6.28;5.15;;;;;;;;;;5027202;28;20061;-65
2022/07/16 03:20:46;;;;;;;10.57;9.30;;;;;;;;;;5013984;28;20060;-68
2022/07/16 03:23:12;;;;;;;6.78;3.90;;;;;;;;;;5013894;28;20034;-65
2022/07/16 03:25:38;;;;;;;6.75;5.05;;;;;;;;;;5013966;28;20030;-64
2022/07/16 03:28:05;;;;;;;7.43;4.07;;;;;;;;;;5013471;28;20101;-66
2022/07/16 03:30:31;;;;;;;7.35;4.10;;;;;;;;;;5013638;28;20380;-70
2022/07/16 03:32:58;;;;;;;5.05;3.58;;;;;;;;;;5013798;28;20030;-66
2022/07/16 03:35:24;;;;;;;7.90;4.20;;;;;;;;;;5013511;28;20022;-64
2022/07/16 03:40:35;;;;;;;6.95;3.97;;;;;;;;;;5013406;28;20056;-64
2022/07/16 03:43:01;;;;;;;10.93;7.43;;;;;;;;;;5012579;28;20124;-64
2022/07/16 03:45:27;;;;;;;14.63;6.30;;;;;;;;;;5013356;28;20522;-64
2022/07/16 03:47:53;;;;;;;10.70;4.72;;;;;;;;;;5011953;28;20440;-64
2022/07/16 03:50:19;;;;;;;7.95;4.43;;;;;;;;;;5013332;28;20454;-63
2022/07/16 03:52:45;;;;;;;8.65;4.18;;;;;;;;;;5011658;28;20038;-65
2022/07/16 03:55:11;;;;;;;8.77;4.68;;;;;;;;;;5013320;28;20022;-64
2022/07/16 03:57:38;;;;;;;7.45;4.32;;;;;;;;;;5013170;28;20048;-64
2022/07/16 04:00:05;;;;;;;7.00;4.88;;;;;;;;;;5013016;28;20046;-64
2022/07/16 04:02:31;;;;;;;8.60;4.38;;;;;;;;;;5013221;28;20443;-65
2022/07/16 04:04:57;;;;;;;11.65;4.82;;;;;;;;;;5013226;28;20025;-64
2022/07/16 04:07:23;;;;;;;7.85;4.25;;;;;;;;;;5013424;28;20113;-64
2022/07/16 04:09:49;;;;;;;5.55;4.45;;;;;;;;;;5013158;28;20026;-63
2022/07/16 04:12:15;;;;;;;11.55;4.68;;;;;;;;;;5014500;28;20045;-63
2022/07/16 04:14:41;;;;;;;8.07;4.28;;;;;;;;;;5017190;28;20535;-64
2022/07/16 04:17:07;;;;;;;8.15;4.10;;;;;;;;;;5017236;28;20038;-64
2022/07/16 04:19:34;;;;;;;6.40;3.85;;;;;;;;;;5017041;28;20034;-64
2022/07/16 04:22:00;;;;;;;5.03;3.50;;;;;;;;;;5017066;28;20026;-63
2022/07/16 04:24:26;;;;;;;8.23;4.78;;;;;;;;;;5016930;28;20037;-63
2022/07/16 04:26:52;;;;;;;5.82;3.97;;;;;;;;;;5016976;28;20033;-65
2022/07/16 04:29:18;;;;;;;9.38;5.95;;;;;;;;;;5016841;28;20026;-64
2022/07/16 04:31:44;;;;;;;8.13;4.80;;;;;;;;;;5016918;28;20034;-71
2022/07/16 04:34:10;;;;;;;8.80;4.38;;;;;;;;;;5016679;28;20026;-63
2022/07/16 04:36:36;;;;;;;6.30;3.88;;;;;;;;;;5016924;28;20022;-67
2022/07/16 04:39:02;;;;;;;8.90;4.00;;;;;;;;;;5016448;28;20026;-65
2022/07/16 04:41:28;;;;;;;7.82;3.97;;;;;;;;;;5016635;28;20069;-65
2022/07/16 04:43:54;;;;;;;8.57;4.60;;;;;;;;;;5016486;28;20022;-66
2022/07/16 04:46:21;;;;;;;5.45;4.25;;;;;;;;;;5016598;28;20085;-65
2022/07/16 04:48:47;;;;;;;7.90;3.75;;;;;;;;;;5016618;28;20029;-64
2022/07/16 04:51:13;;;;;;;6.50;4.45;;;;;;;;;;5016742;28;20117;-64
2022/07/16 04:53:39;;;;;;;10.35;4.43;;;;;;;;;;5016614;28;20472;-63
2022/07/16 04:56:05;;;;;;;5.38;3.50;;;;;;;;;;5016531;28;20395;-65
2022/07/16 04:58:31;;;;;;;10.15;3.70;;;;;;;;;;5016273;28;20049;-64
2022/07/16 05:00:57;;;;;;;6.28;4.13;;;;;;;;;;5016323;28;20403;-63
2022/07/16 05:03:23;;;;;;;5.95;3.72;;;;;;;;;;5016644;28;20372;-65
2022/07/16 05:05:49;;;;;;;9.30;4.30;;;;;;;;;;5016184;28;20034;-68
2022/07/16 05:08:16;;;;;;;7.07;4.43;;;;;;;;;;5016014;28;20029;-66
2022/07/16 05:10:42;;;;;;;11.98;8.50;;;;;;;;;;5016115;28;20034;-64
2022/07/16 05:13:10;;;;;;;11.48;9.68;;;;;;;;;;5035217;28;20045;-64
2022/07/16 05:15:36;;;;;;;15.85;9.75;;;;;;;;;;5034096;28;20171;-65
2022/07/16 05:18:02;;;;;;;8.50;5.78;;;;;;;;;;5015669;28;20026;-66
2022/07/16 05:20:29;;;;;;;8.50;5.22;;;;;;;;;;5015805;28;20096;-65
2022/07/16 05:22:55;;;;;;;10.45;5.53;;;;;;;;;;5015815;28;20025;-64
2022/07/16 05:25:21;;;;;;;7.53;4.38;;;;;;;;;;5015750;28;20381;-64
2022/07/16 05:27:48;;;;;;;6.90;4.30;;;;;;;;;;5015664;28;20018;-64
2022/07/16 05:30:14;;;;;;;6.97;4.38;;;;;;;;;;5015648;28;20026;-65
2022/07/16 05:32:44;;;;;;;8.98;4.55;;;;;;;;;;5015872;28;20033;-64
2022/07/16 05:35:11;;;;;;;9.65;4.90;;;;;;;;;;5028480;28;20051;-65
2022/07/16 05:37:37;;;;;;;7.57;4.68;;;;;;;;;;5035517;28;20028;-64
2022/07/16 05:40:04;;;;;;;9.68;4.82;;;;;;;;;;5034972;28;20048;-71
2022/07/16 05:42:30;;;;;;;8.32;6.22;;;;;;;;;;5003817;28;20113;-65
2022/07/16 05:44:56;;;;;;;14.10;6.20;;;;;;;;;;5015352;28;20041;-65
2022/07/16 05:47:22;;;;;;;10.85;7.20;;;;;;;;;;5015437;28;20037;-65
2022/07/16 05:49:48;;;;;;;11.10;6.22;;;;;;;;;;5015656;28;20034;-64
2022/07/16 05:52:14;;;;;;;7.60;4.93;;;;;;;;;;5015234;28;20526;-65
2022/07/16 05:54:40;;;;;;;9.45;6.28;;;;;;;;;;5015319;28;20156;-70
2022/07/16 05:57:06;;;;;;;8.20;4.75;;;;;;;;;;5015591;28;20168;-64
2022/07/16 05:59:33;;;;;;;13.38;4.80;;;;;;;;;;5015048;28;20105;-65
2022/07/16 06:01:59;;;;;;;7.97;4.78;;;;;;;;;;5015277;28;20424;-67
2022/07/16 06:04:25;;;;;;;12.27;4.75;;;;;;;;;;5015015;28;20048;-64
2022/07/16 06:06:51;;;;;;;11.52;6.10;;;;;;;;;;5015388;28;20022;-64
2022/07/16 06:09:17;;;;;;;7.85;4.18;;;;;;;;;;5015254;28;20022;-64
2022/07/16 06:11:43;;;;;;;7.05;4.25;;;;;;;;;;5022248;28;20045;-64
2022/07/16 06:14:09;;;;;;;6.75;4.07;;;;;;;;;;5034467;28;20033;-66
2022/07/16 06:16:35;;;;;;;9.77;4.10;;;;;;;;;;5034615;28;20056;-66
2022/07/16 06:19:02;;;;;;;8.20;3.92;;;;;;;;;;5034528;28;20021;-65
2022/07/16 06:21:28;;;;;;;8.65;4.20;;;;;;;;;;5034572;28;20041;-66
2022/07/16 06:23:54;;;;;;;10.35;4.63;;;;;;;;;;5034514;28;20407;-65
2022/07/16 06:26:20;;;;;;;11.57;4.80;;;;;;;;;;5034226;28;20029;-64
2022/07/16 06:28:46;;;;;;;7.80;4.47;;;;;;;;;;5034526;28;20025;-65
2022/07/16 06:31:12;;;;;;;23.77;6.70;;;;;;;;;;5023323;28;20061;-65
2022/07/16 06:33:38;;;;;;;8.80;3.80;;;;;;;;;;5014742;28;20030;-67
2022/07/16 06:36:05;;;;;;;7.03;3.55;;;;;;;;;;5014103;28;20049;-65
2022/07/16 06:38:32;;;;;;;8.85;5.38;;;;;;;;;;5014546;28;20030;-65
2022/07/16 06:40:58;;;;;;;11.27;4.68;;;;;;;;;;5014433;28;20044;-64
2022/07/16 06:43:24;;;;;;;12.05;4.10;;;;;;;;;;5014293;28;20110;-64
2022/07/16 06:45:51;;;;;;;5.60;4.15;;;;;;;;;;5014501;28;20033;-70
2022/07/16 06:48:18;;;;;;;8.23;4.00;;;;;;;;;;5014320;28;20109;-69
2022/07/16 06:50:44;;;;;;;12.95;4.45;;;;;;;;;;5014289;28;20029;-64
2022/07/16 06:53:10;;;;;;;11.02;4.20;;;;;;;;;;5014140;28;20097;-64
2022/07/16 06:55:36;;;;;;;7.53;3.70;;;;;;;;;;5014273;28;20033;-64
2022/07/16 06:58:02;;;;;;;7.80;3.38;;;;;;;;;;5014114;28;20058;-67
2022/07/16 07:00:28;;;;;;;6.15;4.00;;;;;;;;;;5013784;28;20057;-65
2022/07/16 07:02:55;;;;;;;7.22;4.18;;;;;;;;;;5014099;28;20084;-70
2022/07/16 07:05:21;;;;;;;8.10;4.68;;;;;;;;;;5014327;28;20045;-66
2022/07/16 07:07:47;;;;;;;20.50;15.02;;;;;;;;;;5013906;28;20018;-64
2022/07/16 07:10:13;;;;;;;19.05;17.10;;;;;;;;;;5013862;28;20038;-69
2022/07/16 07:12:39;;;;;;;10.15;7.28;;;;;;;;;;5026581;28;20076;-69
2022/07/16 07:15:05;;;;;;;18.48;14.27;;;;;;;;;;5001641;28;20042;-68
2022/07/16 07:17:32;;;;;;;22.45;17.05;;;;;;;;;;4994459;28;20078;-67
2022/07/16 07:19:58;;;;;;;24.00;18.23;;;;;;;;;;5005940;28;20061;-66
2022/07/16 07:22:24;;;;;;;12.55;7.63;;;;;;;;;;5001502;28;20053;-65
2022/07/16 07:24:50;;;;;;;8.02;5.90;;;;;;;;;;4994132;28;20470;-66
2022/07/16 07:27:18;;;;;;;7.72;5.63;;;;;;;;;;4994074;28;20440;-66
2022/07/16 07:29:44;;;;;;;27.33;18.73;;;;;;;;;;5007528;28;20447;-67
2022/07/16 07:32:10;;;;;;;19.88;15.35;;;;;;;;;;5007414;28;20022;-68
2022/07/16 07:34:37;;;;;;;11.25;6.38;;;;;;;;;;5000708;28;20022;-67
2022/07/16 07:37:03;;;;;;;10.10;8.00;;;;;;;;;;5013677;28;20029;-67
2022/07/16 07:39:29;;;;;;;13.35;6.45;;;;;;;;;;5013558;28;20570;-72
2022/07/16 07:41:55;;;;;;;11.15;7.10;;;;;;;;;;5013476;28;20033;-67
2022/07/16 07:44:21;;;;;;;10.65;8.23;;;;;;;;;;5013380;28;20032;-66
2022/07/16 07:46:47;;;;;;;10.50;5.47;;;;;;;;;;5012432;28;20026;-66
2022/07/16 07:49:13;;;;;;;7.65;5.93;;;;;;;;;;5013533;28;20033;-66
2022/07/16 07:51:39;;;;;;;14.88;7.90;;;;;;;;;;5013318;28;20468;-66
2022/07/16 07:54:05;;;;;;;16.00;7.63;;;;;;;;;;5013273;28;20026;-66
2022/07/16 07:56:31;;;;;;;17.25;10.27;;;;;;;;;;5012750;28;20026;-66
2022/07/16 07:58:58;;;;;;;13.55;10.95;;;;;;;;;;5012964;28;20477;-66
2022/07/16 08:01:24;;;;;;;12.60;10.43;;;;;;;;;;4982531;28;20046;-66
2022/07/16 08:03:50;;;;;;;11.20;4.78;;;;;;;;;;5012858;28;20538;-67
2022/07/16 08:06:16;;;;;;;11.02;6.75;;;;;;;;;;5013201;28;20360;-67
2022/07/16 08:08:42;;;;;;;9.15;4.68;;;;;;;;;;5013230;28;20033;-67
2022/07/16 08:11:08;;;;;;;7.43;3.95;;;;;;;;;;5012641;28;20054;-66
2022/07/16 08:13:34;;;;;;;10.57;6.28;;;;;;;;;;5013082;28;20030;-67
2022/07/16 08:16:00;;;;;;;18.48;14.88;;;;;;;;;;5012990;28;20392;-67
2022/07/16 08:18:26;;;;;;;9.18;5.55;;;;;;;;;;5013212;28;20045;-69
2022/07/16 08:20:53;;;;;;;12.15;4.32;;;;;;;;;;5010074;28;20099;-67
2022/07/16 08:25:44;;;;;;;14.48;12.40;;;;;;;;;;5013054;28;20064;-68
2022/07/16 08:26:05;;;;;;;18.50;15.82;;;;;;;;;;5013011;28;20102;-68
2022/07/16 08:28:31;;;;;;;8.20;4.95;;;;;;;;;;5013180;28;20053;-68
2022/07/16 08:30:57;;;;;;;8.93;5.00;;;;;;;;;;5013034;28;20018;-69
2022/07/16 08:33:23;;;;;;;10.95;4.63;;;;;;;;;;5013486;28;20030;-67
2022/07/16 08:35:49;;;;;;;6.47;3.65;;;;;;;;;;5013258;28;20025;-67
2022/07/16 08:38:15;;;;;;;9.48;6.28;;;;;;;;;;5012930;28;20030;-67
2022/07/16 08:40:42;;;;;;;6.88;5.22;;;;;;;;;;5012709;28;20038;-69
2022/07/16 08:43:08;;;;;;;9.30;5.82;;;;;;;;;;5012894;28;20029;-68
2022/07/16 08:45:36;;;;;;;10.15;6.93;;;;;;;;;;5012686;28;20064;-73
2022/07/16 08:48:03;;;;;;;10.27;5.63;;;;;;;;;;5013046;28;20109;-72
2022/07/16 08:50:29;;;;;;;11.52;6.50;;;;;;;;;;5013217;28;20030;-74
2022/07/16 08:52:57;;;;;;;8.63;4.80;;;;;;;;;;5012036;28;20365;-74
2022/07/16 08:55:24;;;;;;;9.65;6.97;;;;;;;;;;5013074;28;20065;-71
2022/07/16 08:57:50;;;;;;;9.93;5.57;;;;;;;;;;5013833;28;20029;-69
2022/07/16 09:00:17;;;;;;;7.15;4.25;;;;;;;;;;5016287;28;20030;-68
2022/07/16 09:02:45;;;;;;;11.48;6.20;;;;;;;;;;5016593;28;20034;-68
2022/07/16 09:05:11;;;;;;;6.22;4.90;;;;;;;;;;5016868;28;20033;-68
2022/07/16 09:07:37;;;;;;;8.77;4.95;;;;;;;;;;5015797;28;20022;-68
2022/07/16 09:10:07;;;;;;;8.77;4.32;;;;;;;;;;5016340;28;20033;-69
2022/07/16 09:12:35;;;;;;;7.30;4.40;;;;;;;;;;5016036;28;20534;-73
2022/07/16 09:15:21;;;;;;;9.18;4.45;;;;;;;;;;5016485;28;20030;-70
2022/07/16 09:18:05;;;;;;;7.93;4.20;;;;;;;;;;5016074;28;20032;-68
2022/07/16 09:20:32;;;;;;;6.43;4.25;;;;;;;;;;5016229;28;20424;-75
2022/07/16 09:22:58;;;;;;;6.93;4.70;;;;;;;;;;5016484;28;20021;-73
2022/07/16 09:25:24;;;;;;;5.38;3.78;;;;;;;;;;5016455;28;20480;-73
2022/07/16 09:27:57;;;;;;;6.53;3.53;;;;;;;;;;5016269;28;20121;-76
2022/07/16 09:30:24;;;;;;;5.65;3.70;;;;;;;;;;5016238;28;20029;-74
2022/07/16 09:32:50;;;;;;;8.55;4.35;;;;;;;;;;5016038;28;20022;-74
2022/07/16 09:35:17;;;;;;;7.32;4.70;;;;;;;;;;5015816;28;20029;-73
2022/07/16 09:37:53;;;;;;;6.40;3.83;;;;;;;;;;5015797;28;20400;-72
2022/07/16 09:40:29;;;;;;;5.90;3.70;;;;;;;;;;5015850;28;20030;-71
2022/07/16 09:42:55;;;;;;;8.80;3.72;;;;;;;;;;5015831;28;20026;-72
2022/07/16 09:45:22;;;;;;;7.57;3.75;;;;;;;;;;5015668;28;20030;-75
2022/07/16 09:47:48;;;;;;;8.73;4.20;;;;;;;;;;5015718;28;20026;-76
2022/07/16 09:50:15;;;;;;;8.07;4.07;;;;;;;;;;5015828;28;20443;-76
2022/07/16 09:52:41;;;;;;;9.60;4.28;;;;;;;;;;5015648;28;20041;-75
2022/07/16 09:55:07;;;;;;;9.52;3.70;;;;;;;;;;5015582;28;20022;-75
2022/07/16 09:57:34;;;;;;;4.85;3.65;;;;;;;;;;5014200;28;20022;-75
2022/07/16 10:00:00;;;;;;;6.50;4.20;;;;;;;;;;5015885;28;20038;-79
2022/07/16 10:02:27;;;;;;;6.68;3.78;;;;;;;;;;5015885;28;20092;-80
2022/07/16 10:04:53;;;;;;;6.22;4.30;;;;;;;;;;5015936;28;20029;-73
2022/07/16 10:07:20;;;;;;;6.03;4.57;;;;;;;;;;5016133;28;20503;-79
2022/07/16 10:09:46;;;;;;;8.23;3.90;;;;;;;;;;5014933;28;20029;-69
2022/07/16 10:12:17;;;;;;;5.13;3.60;;;;;;;;;;5014604;28;20527;-69
2022/07/16 10:14:45;;;;;;;7.10;4.22;;;;;;;;;;5015694;28;20037;-70
2022/07/16 10:17:21;;;;;;;5.07;4.00;;;;;;;;;;5013984;28;20467;-75
2022/07/16 10:20:00;;;;;;;4.85;3.47;;;;;;;;;;5015056;28;20547;-75
2022/07/16 10:22:29;;;;;;;5.35;3.70;;;;;;;;;;5008190;28;20045;-70
2022/07/16 10:24:56;;;;;;;5.00;4.10;;;;;;;;;;5005949;28;20056;-72
2022/07/16 10:27:32;;;;;;;6.47;4.00;;;;;;;;;;4995087;28;20485;-68
2022/07/16 10:30:08;;;;;;;5.43;3.83;;;;;;;;;;4995341;28;20097;-73
2022/07/16 10:32:54;;;;;;;4.93;4.03;;;;;;;;;;4994889;28;20093;-66
2022/07/16 10:35:32;;;;;;;6.57;4.35;;;;;;;;;;4995013;28;20037;-68
2022/07/16 10:38:08;;;;;;;10.43;4.45;;;;;;;;;;5011711;28;20060;-68
2022/07/16 10:40:36;;;;;;;11.45;4.03;;;;;;;;;;5014506;28;20038;-66
2022/07/16 10:43:21;;;;;;;6.13;4.25;;;;;;;;;;5014736;28;20519;-68
2022/07/16 10:45:51;;;;;;;10.95;4.47;;;;;;;;;;5014734;28;20404;-67
2022/07/16 10:48:18;;;;;;;9.00;4.40;;;;;;;;;;5014250;28;20022;-71
2022/07/16 10:51:07;;;;;;;8.82;4.18;;;;;;;;;;5014418;28;20030;-67
2022/07/16 10:53:52;;;;;;;15.50;4.70;;;;;;;;;;5006076;28;20121;-68
2022/07/16 10:56:36;;;;;;;12.82;5.03;;;;;;;;;;5014338;28;20044;-68
2022/07/16 10:59:03;;;;;;;7.95;4.18;;;;;;;;;;5014259;28;20030;-68
2022/07/16 11:01:29;;;;;;;11.02;5.57;;;;;;;;;;5012364;28;20032;-65
2022/07/16 11:03:56;;;;;;;14.73;8.98;;;;;;;;;;5013397;28;20506;-67
2022/07/16 11:06:22;;;;;;;8.15;4.47;;;;;;;;;;5013443;28;20026;-67
2022/07/16 11:08:55;;;;;;;10.43;5.15;;;;;;;;;;5013194;28;20091;-67
2022/07/16 11:11:21;;;;;;;7.13;4.63;;;;;;;;;;5013053;28;20100;-67
2022/07/16 11:13:48;;;;;;;38.85;25.92;;;;;;;;;;5013195;28;20141;-69
2022/07/16 11:16:14;;;;;;;17.95;12.88;;;;;;;;;;5013292;28;20064;-70
2022/07/16 11:18:40;;;;;;;269.63;227.05;;;;;;;;;;5013245;28;20384;-68
2022/07/16 11:21:10;;;;;;;59.70;43.95;;;;;;;;;;5013036;28;20038;-67
2022/07/16 11:23:54;;;;;;;19.10;13.13;;;;;;;;;;5013190;28;20022;-69
2022/07/16 11:26:21;;;;;;;52.50;39.83;;;;;;;;;;5013271;28;20075;-66
2022/07/16 11:28:51;;;;;;;34.17;24.70;;;;;;;;;;5013113;28;20021;-67
2022/07/16 11:31:24;;;;;;;110.50;85.78;;;;;;;;;;5012772;28;20032;-67
2022/07/16 11:33:50;;;;;;;21.25;14.77;;;;;;;;;;5012876;28;20025;-65
2022/07/16 11:36:16;;;;;;;36.13;29.35;;;;;;;;;;5012818;28;20030;-66
2022/07/16 11:38:43;;;;;;;58.83;45.10;;;;;;;;;;5013055;28;20025;-66
2022/07/16 11:41:09;;;;;;;13.48;10.45;;;;;;;;;;5012659;28;20041;-67
2022/07/16 11:43:36;;;;;;;8.02;5.68;;;;;;;;;;5012789;28;20029;-69
2022/07/16 11:46:02;;;;;;;18.10;10.90;;;;;;;;;;5008480;28;20034;-68
2022/07/16 11:48:38;;;;;;;66.43;51.40;;;;;;;;;;5003812;28;20476;-66
2022/07/16 11:51:08;;;;;;;25.20;19.02;;;;;;;;;;5009033;28;20029;-67
2022/07/16 11:53:37;;;;;;;126.23;104.40;;;;;;;;;;5004778;28;20053;-74
2022/07/16 11:56:03;;;;;;;71.85;59.60;;;;;;;;;;5007261;28;20350;-69
2022/07/16 11:58:30;;;;;;;18.98;12.95;;;;;;;;;;5012705;28;20029;-68
2022/07/16 12:00:56;;;;;;;30.42;20.20;;;;;;;;;;5012331;28;20076;-69
2022/07/16 12:03:22;;;;;;;25.50;20.63;;;;;;;;;;5012862;28;20093;-69
2022/07/16 12:05:48;;;;;;;17.42;11.88;;;;;;;;;;5012006;28;20041;-66
2022/07/16 12:08:15;;;;;;;13.18;9.05;;;;;;;;;;5012447;28;20022;-67
2022/07/16 12:10:42;;;;;;;20.08;16.30;;;;;;;;;;5012730;28;20026;-66
2022/07/16 12:13:11;;;;;;;10.38;5.82;;;;;;;;;;5031412;28;20049;-65
2022/07/16 12:15:58;;;;;;;13.00;8.25;;;;;;;;;;5032256;28;20017;-65
2022/07/16 12:18:24;;;;;;;5.88;4.75;;;;;;;;;;5021131;28;20026;-67
2022/07/16 12:20:50;;;;;;;10.60;5.63;;;;;;;;;;5009177;28;20519;-66
2022/07/16 12:23:37;;;;;;;10.93;7.43;;;;;;;;;;5012740;28;20033;-67
2022/07/16 12:26:04;;;;;;;7.95;6.28;;;;;;;;;;5012524;28;20034;-66
2022/07/16 12:28:30;;;;;;;44.30;34.63;;;;;;;;;;5010908;28;20032;-70
2022/07/16 12:30:57;;;;;;;17.98;14.02;;;;;;;;;;5005776;28;20027;-74
2022/07/16 12:33:26;;;;;;;283.92;253.35;;;;;;;;;;5011330;28;20033;-70
2022/07/16 12:36:13;;;;;;;46.92;36.40;;;;;;;;;;5016447;28;20423;-67
2022/07/16 12:41:15;;;;;;;8.02;5.50;;;;;;;;;;5015864;28;20049;-68
2022/07/16 12:43:42;;;;;;;8.20;6.63;;;;;;;;;;5016251;28;20026;-71
2022/07/16 12:46:10;;;;;;;8.55;7.20;;;;;;;;;;5016180;28;20400;-72
2022/07/16 12:48:45;;;;;;;9.40;4.45;;;;;;;;;;5014394;28;20033;-69
2022/07/16 12:51:12;;;;;;;13.68;10.80;;;;;;;;;;5015844;28;20030;-69
2022/07/16 12:53:39;;;;;;;25.20;21.17;;;;;;;;;;5016452;28;20424;-70
2022/07/16 12:58:50;;;;;;;8.27;4.03;;;;;;;;;;5016245;28;20033;-68
2022/07/16 13:01:20;;;;;;;6.13;3.78;;;;;;;;;;5015585;28;20091;-66
2022/07/16 13:03:46;;;;;;;13.70;11.18;;;;;;;;;;5015928;28;20506;-68
2022/07/16 13:06:13;;;;;;;7.53;5.68;;;;;;;;;;5015980;28;20084;-66
2022/07/16 13:08:39;;;;;;;7.68;5.15;;;;;;;;;;5016178;28;20093;-67
2022/07/16 13:11:09;;;;;;;7.45;3.92;;;;;;;;;;5015596;28;20037;-66
2022/07/16 13:13:36;;;;;;;7.40;5.50;;;;;;;;;;5015861;28;20037;-68
2022/07/16 13:16:02;;;;;;;7.35;5.45;;;;;;;;;;5015919;28;20018;-65
2022/07/16 13:18:28;;;;;;;8.00;4.90;;;;;;;;;;5015738;28;20061;-65
2022/07/16 13:20:55;;;;;;;7.50;6.00;;;;;;;;;;5012511;28;20132;-65
2022/07/16 13:23:21;;;;;;;6.35;4.50;;;;;;;;;;5015643;28;20022;-67
2022/07/16 13:25:48;;;;;;;7.10;3.80;;;;;;;;;;5014292;28;20057;-69
2022/07/16 13:28:15;;;;;;;7.82;4.95;;;;;;;;;;5015988;28;20026;-69
2022/07/16 13:30:41;;;;;;;5.82;4.15;;;;;;;;;;5013164;28;20061;-68
2022/07/16 13:33:08;;;;;;;4.50;3.83;;;;;;;;;;5009224;28;20099;-67
2022/07/16 13:35:34;;;;;;;4.40;3.63;;;;;;;;;;5014647;28;20038;-69
2022/07/16 13:38:00;;;;;;;5.95;3.60;;;;;;;;;;5013601;28;20029;-67
2022/07/16 13:40:26;;;;;;;6.32;4.47;;;;;;;;;;5012960;28;20057;-68
2022/07/16 13:42:52;;;;;;;10.30;5.65;;;;;;;;;;5013031;28;20041;-65
2022/07/16 13:45:18;;;;;;;8.52;4.22;;;;;;;;;;5009762;28;20022;-66
2022/07/16 13:47:45;;;;;;;5.78;4.38;;;;;;;;;;5014213;28;20036;-67
2022/07/16 13:50:11;;;;;;;9.50;4.22;;;;;;;;;;5015077;28;20026;-67
2022/07/16 13:52:37;;;;;;;9.00;6.00;;;;;;;;;;5014963;28;20032;-66
2022/07/16 13:55:03;;;;;;;6.07;5.47;;;;;;;;;;5014879;28;20025;-69
2022/07/16 14:00:15;;;;;;;13.70;6.30;;;;;;;;;;5013583;28;20084;-66
2022/07/16 14:02:41;;;;;;;7.90;5.03;;;;;;;;;;5014908;28;20032;-68
2022/07/16 14:05:07;;;;;;;8.18;4.88;;;;;;;;;;5014647;28;20090;-66
2022/07/16 14:07:33;;;;;;;8.68;4.90;;;;;;;;;;5014529;28;20026;-68
2022/07/16 14:09:59;;;;;;;7.45;5.32;;;;;;;;;;5029656;28;20038;-66
2022/07/16 14:12:25;;;;;;;10.98;6.03;;;;;;;;;;5027652;28;20483;-68
2022/07/16 14:14:51;;;;;;;7.75;5.70;;;;;;;;;;5034226;28;20411;-67
2022/07/16 14:17:17;;;;;;;6.20;4.88;;;;;;;;;;5034240;28;20017;-72
2022/07/16 14:19:43;;;;;;;10.10;6.43;;;;;;;;;;5034100;28;20041;-68
2022/07/16 14:22:10;;;;;;;9.20;5.65;;;;;;;;;;5034286;28;20037;-71
2022/07/16 14:24:36;;;;;;;6.00;4.85;;;;;;;;;;5034161;28;20530;-72
2022/07/16 14:27:02;;;;;;;8.57;5.13;;;;;;;;;;5034045;28;20021;-68
2022/07/16 14:29:28;;;;;;;6.95;4.93;;;;;;;;;;5034188;28;20030;-67
2022/07/16 14:31:54;;;;;;;7.15;5.60;;;;;;;;;;5033954;28;20471;-71
2022/07/16 14:34:20;;;;;;;6.63;3.83;;;;;;;;;;5034124;28;20021;-66
2022/07/16 14:36:46;;;;;;;4.72;4.10;;;;;;;;;;5034128;28;20025;-66
2022/07/16 14:39:12;;;;;;;5.70;4.28;;;;;;;;;;5034101;28;20033;-66
2022/07/16 14:41:38;;;;;;;6.95;4.32;;;;;;;;;;5034365;28;20434;-66
2022/07/16 14:44:05;;;;;;;5.55;4.13;;;;;;;;;;5034086;28;20049;-67
2022/07/16 14:46:31;;;;;;;7.22;4.68;;;;;;;;;;5034249;28;20022;-65
2022/07/16 14:48:57;;;;;;;6.45;3.80;;;;;;;;;;5033902;28;20021;-71
2022/07/16 14:51:24;;;;;;;8.73;4.93;;;;;;;;;;5033852;28;20026;-72